Αρχική σελίδα
METAR-TAF:

METAR-TAF

Αεροδρόμια :

Medicine Lodge Airport

Medicine Lodge, Κάνσας, Ηνωμένες Πολιτείες Αμερικής

γεωγραφικό πλάτος: 37-17-02N, γεωγραφικό μήκος: 098-33-10W, υψόμετρο: 469 μ

Παρών καιρός

Η αναφορά έγινε 1 ώρα και 1 λεπτά πριν, στις 22:56 UTC
Άνεμος 9 kt από Α/NA με ριπές μέχρι 15 kt
Θερμοκρασία 32°C
Υγρασία 46%
Πίεση 1013 hPa

METAR: KP28 222256Z AUTO 11009G15KT 32/19 A2992 RMK AO1 SLP113 T03220189

Χρόνος: 18:57 (23:57 UTC)


TAF: λείπει

Μετεωρολογικές αναφορές και προγνώσεις για περισσότερα από 4000 αεροδρόμια (δελτία METAR και TAF).

Οι διαθέσιμοι σταθμοί απεικονίζονται στο χάρτη με κίτρινες και κόκκινες κουκκίδες.

Μετακινήστε το ποντίκι πάνω από τις κουκκίδες για να δείτε το όνομα του σταθμού.

Στη συνέχεια, κάντε κλικ για να δείτε τις μετεωρολογικές αναφορές και τις προγνώσεις καιρού.

Για να αλλάξετε το χάρτη: κάντε κλικ στα πράσινα κουμπιά με τον μαύρο σταυρό για να ζουμάρετε, στο πράσινο κουμπί με την παύλα για να αφαιρέσετε το ζουμ ή στα πράσινα βέλη για να αντιπαραβάλλετε χάρτες.


METAR-TAF: